sensor_id;sensor_type;location;lat;lon;timestamp;pressure;altitude;pressure_sealevel;temperature
73937;BMP180;59249;59.736;30.568;2024-01-07T00:00:26;102009.00;;;-21.30
73937;BMP180;59249;59.736;30.568;2024-01-07T00:03:04;102008.00;;;-21.30
73937;BMP180;59249;59.736;30.568;2024-01-07T00:05:35;102016.00;;;-21.30
73937;BMP180;59249;59.736;30.568;2024-01-07T00:08:07;102002.00;;;-21.30
73937;BMP180;59249;59.736;30.568;2024-01-07T00:10:36;102010.00;;;-21.40
73937;BMP180;59249;59.736;30.568;2024-01-07T00:13:05;102004.00;;;-21.40
73937;BMP180;59249;59.736;30.568;2024-01-07T00:15:47;102017.00;;;-21.50
73937;BMP180;59249;59.736;30.568;2024-01-07T00:18:19;102009.00;;;-21.40
73937;BMP180;59249;59.736;30.568;2024-01-07T00:20:50;102010.00;;;-21.50
73937;BMP180;59249;59.736;30.568;2024-01-07T00:23:20;102015.00;;;-21.50
73937;BMP180;59249;59.736;30.568;2024-01-07T00:25:50;102022.00;;;-21.50
73937;BMP180;59249;59.736;30.568;2024-01-07T00:28:19;102017.00;;;-21.50
73937;BMP180;59249;59.736;30.568;2024-01-07T00:30:48;102015.00;;;-21.40
73937;BMP180;59249;59.736;30.568;2024-01-07T00:33:18;102021.00;;;-21.40
73937;BMP180;59249;59.736;30.568;2024-01-07T00:35:48;102022.00;;;-21.40
73937;BMP180;59249;59.736;30.568;2024-01-07T00:38:17;102025.00;;;-21.40
73937;BMP180;59249;59.736;30.568;2024-01-07T00:40:46;102031.00;;;-21.50
73937;BMP180;59249;59.736;30.568;2024-01-07T00:43:15;102031.00;;;-21.50
73937;BMP180;59249;59.736;30.568;2024-01-07T00:45:45;102027.00;;;-21.60
73937;BMP180;59249;59.736;30.568;2024-01-07T00:48:15;102044.00;;;-21.60
73937;BMP180;59249;59.736;30.568;2024-01-07T00:50:46;102040.00;;;-21.60
73937;BMP180;59249;59.736;30.568;2024-01-07T00:53:15;102049.00;;;-21.60
73937;BMP180;59249;59.736;30.568;2024-01-07T00:55:44;102045.00;;;-21.70
73937;BMP180;59249;59.736;30.568;2024-01-07T00:58:13;102051.00;;;-21.70
73937;BMP180;59249;59.736;30.568;2024-01-07T01:00:43;102051.00;;;-21.70
73937;BMP180;59249;59.736;30.568;2024-01-07T01:03:12;102057.00;;;-21.80
73937;BMP180;59249;59.736;30.568;2024-01-07T01:05:41;102058.00;;;-21.80
73937;BMP180;59249;59.736;30.568;2024-01-07T01:08:12;102055.00;;;-21.90
73937;BMP180;59249;59.736;30.568;2024-01-07T01:10:42;102062.00;;;-22.00
73937;BMP180;59249;59.736;30.568;2024-01-07T01:13:11;102062.00;;;-22.00
73937;BMP180;59249;59.736;30.568;2024-01-07T01:15:40;102066.00;;;-22.10
73937;BMP180;59249;59.736;30.568;2024-01-07T01:18:10;102068.00;;;-22.10
73937;BMP180;59249;59.736;30.568;2024-01-07T01:20:39;102073.00;;;-22.10
73937;BMP180;59249;59.736;30.568;2024-01-07T01:23:08;102097.00;;;-22.10
73937;BMP180;59249;59.736;30.568;2024-01-07T01:25:39;102081.00;;;-22.20
73937;BMP180;59249;59.736;30.568;2024-01-07T01:28:09;102092.00;;;-22.20
73937;BMP180;59249;59.736;30.568;2024-01-07T01:30:43;102100.00;;;-22.30
73937;BMP180;59249;59.736;30.568;2024-01-07T01:33:13;102093.00;;;-22.30
73937;BMP180;59249;59.736;30.568;2024-01-07T01:35:51;102104.00;;;-22.30
73937;BMP180;59249;59.736;30.568;2024-01-07T01:38:22;102096.00;;;-22.30
73937;BMP180;59249;59.736;30.568;2024-01-07T01:40:54;102110.00;;;-22.40
73937;BMP180;59249;59.736;30.568;2024-01-07T01:43:24;102102.00;;;-22.40
73937;BMP180;59249;59.736;30.568;2024-01-07T01:45:54;102106.00;;;-22.40
73937;BMP180;59249;59.736;30.568;2024-01-07T01:48:24;102115.00;;;-22.40
73937;BMP180;59249;59.736;30.568;2024-01-07T01:50:55;102108.00;;;-22.40
73937;BMP180;59249;59.736;30.568;2024-01-07T01:53:26;102115.00;;;-22.40
73937;BMP180;59249;59.736;30.568;2024-01-07T01:55:57;102109.00;;;-22.50
73937;BMP180;59249;59.736;30.568;2024-01-07T01:58:29;102109.00;;;-22.50
73937;BMP180;59249;59.736;30.568;2024-01-07T02:00:59;102100.00;;;-22.50
73937;BMP180;59249;59.736;30.568;2024-01-07T02:03:31;102100.00;;;-22.50
73937;BMP180;59249;59.736;30.568;2024-01-07T02:06:05;102117.00;;;-22.40
73937;BMP180;59249;59.736;30.568;2024-01-07T02:08:34;102108.00;;;-22.40
73937;BMP180;59249;59.736;30.568;2024-01-07T02:11:18;102138.00;;;-22.40
73937;BMP180;59249;59.736;30.568;2024-01-07T02:13:49;102125.00;;;-22.40
73937;BMP180;59249;59.736;30.568;2024-01-07T02:16:19;102122.00;;;-22.40
73937;BMP180;59249;59.736;30.568;2024-01-07T02:18:48;102130.00;;;-22.40
73937;BMP180;59249;59.736;30.568;2024-01-07T02:21:19;102131.00;;;-22.40
73937;BMP180;59249;59.736;30.568;2024-01-07T02:23:48;102133.00;;;-22.40
73937;BMP180;59249;59.736;30.568;2024-01-07T02:26:19;102148.00;;;-22.40
73937;BMP180;59249;59.736;30.568;2024-01-07T02:28:50;102144.00;;;-22.40
73937;BMP180;59249;59.736;30.568;2024-01-07T02:31:19;102141.00;;;-22.40
73937;BMP180;59249;59.736;30.568;2024-01-07T02:33:49;102140.00;;;-22.40
73937;BMP180;59249;59.736;30.568;2024-01-07T02:36:19;102149.00;;;-22.50
73937;BMP180;59249;59.736;30.568;2024-01-07T02:38:48;102148.00;;;-22.50
73937;BMP180;59249;59.736;30.568;2024-01-07T02:41:19;102138.00;;;-22.40
73937;BMP180;59249;59.736;30.568;2024-01-07T02:43:53;102143.00;;;-22.50
73937;BMP180;59249;59.736;30.568;2024-01-07T02:46:25;102144.00;;;-22.60
73937;BMP180;59249;59.736;30.568;2024-01-07T02:48:54;102157.00;;;-22.60
73937;BMP180;59249;59.736;30.568;2024-01-07T02:51:40;102151.00;;;-22.60
73937;BMP180;59249;59.736;30.568;2024-01-07T02:54:17;102150.00;;;-22.60
73937;BMP180;59249;59.736;30.568;2024-01-07T02:56:53;102148.00;;;-22.60
73937;BMP180;59249;59.736;30.568;2024-01-07T02:59:22;102156.00;;;-22.60
73937;BMP180;59249;59.736;30.568;2024-01-07T03:02:05;102165.00;;;-22.70
73937;BMP180;59249;59.736;30.568;2024-01-07T03:04:35;102158.00;;;-22.70
73937;BMP180;59249;59.736;30.568;2024-01-07T03:07:09;102157.00;;;-22.70
73937;BMP180;59249;59.736;30.568;2024-01-07T03:09:45;102156.00;;;-22.70
73937;BMP180;59249;59.736;30.568;2024-01-07T03:12:16;102159.00;;;-22.70
73937;BMP180;59249;59.736;30.568;2024-01-07T03:14:50;102160.00;;;-22.70
73937;BMP180;59249;59.736;30.568;2024-01-07T03:17:21;102161.00;;;-22.70
73937;BMP180;59249;59.736;30.568;2024-01-07T03:19:51;102162.00;;;-22.70
73937;BMP180;59249;59.736;30.568;2024-01-07T03:22:21;102155.00;;;-22.70
73937;BMP180;59249;59.736;30.568;2024-01-07T03:24:54;102152.00;;;-22.60
73937;BMP180;59249;59.736;30.568;2024-01-07T03:27:40;102158.00;;;-22.60
73937;BMP180;59249;59.736;30.568;2024-01-07T03:30:16;102163.00;;;-22.60
73937;BMP180;59249;59.736;30.568;2024-01-07T03:32:57;102162.00;;;-22.70
73937;BMP180;59249;59.736;30.568;2024-01-07T03:35:28;102153.00;;;-22.70
73937;BMP180;59249;59.736;30.568;2024-01-07T03:37:57;102158.00;;;-22.60
73937;BMP180;59249;59.736;30.568;2024-01-07T03:40:27;102163.00;;;-22.50
73937;BMP180;59249;59.736;30.568;2024-01-07T03:42:59;102179.00;;;-22.40
73937;BMP180;59249;59.736;30.568;2024-01-07T03:45:29;102162.00;;;-22.30
73937;BMP180;59249;59.736;30.568;2024-01-07T03:47:59;102166.00;;;-22.30
73937;BMP180;59249;59.736;30.568;2024-01-07T03:50:29;102172.00;;;-22.30
73937;BMP180;59249;59.736;30.568;2024-01-07T03:53:20;102172.00;;;-22.30
73937;BMP180;59249;59.736;30.568;2024-01-07T03:55:55;102169.00;;;-22.30
73937;BMP180;59249;59.736;30.568;2024-01-07T03:58:29;102166.00;;;-22.20
73937;BMP180;59249;59.736;30.568;2024-01-07T04:00:59;102169.00;;;-22.10
73937;BMP180;59249;59.736;30.568;2024-01-07T04:03:29;102171.00;;;-22.00
73937;BMP180;59249;59.736;30.568;2024-01-07T04:06:00;102172.00;;;-21.90
73937;BMP180;59249;59.736;30.568;2024-01-07T04:08:30;102169.00;;;-21.70
73937;BMP180;59249;59.736;30.568;2024-01-07T04:11:02;102162.00;;;-21.60
73937;BMP180;59249;59.736;30.568;2024-01-07T04:13:33;102173.00;;;-21.50
73937;BMP180;59249;59.736;30.568;2024-01-07T04:16:02;102173.00;;;-21.30
73937;BMP180;59249;59.736;30.568;2024-01-07T04:18:32;102178.00;;;-21.30
73937;BMP180;59249;59.736;30.568;2024-01-07T04:21:03;102171.00;;;-21.20
73937;BMP180;59249;59.736;30.568;2024-01-07T04:23:32;102166.00;;;-21.10
73937;BMP180;59249;59.736;30.568;2024-01-07T04:26:01;102174.00;;;-21.00
73937;BMP180;59249;59.736;30.568;2024-01-07T04:28:42;102168.00;;;-20.90
73937;BMP180;59249;59.736;30.568;2024-01-07T04:31:34;102164.00;;;-20.80
73937;BMP180;59249;59.736;30.568;2024-01-07T04:34:09;102168.00;;;-20.80
73937;BMP180;59249;59.736;30.568;2024-01-07T04:36:38;102168.00;;;-20.80
73937;BMP180;59249;59.736;30.568;2024-01-07T04:39:16;102178.00;;;-20.70
73937;BMP180;59249;59.736;30.568;2024-01-07T04:41:52;102178.00;;;-20.60
73937;BMP180;59249;59.736;30.568;2024-01-07T04:44:27;102183.00;;;-20.70
73937;BMP180;59249;59.736;30.568;2024-01-07T04:47:24;102195.00;;;-20.60
73937;BMP180;59249;59.736;30.568;2024-01-07T04:49:56;102189.00;;;-20.50
73937;BMP180;59249;59.736;30.568;2024-01-07T04:52:29;102194.00;;;-20.50
73937;BMP180;59249;59.736;30.568;2024-01-07T04:55:02;102193.00;;;-20.40
73937;BMP180;59249;59.736;30.568;2024-01-07T04:57:34;102189.00;;;-20.40
73937;BMP180;59249;59.736;30.568;2024-01-07T05:00:09;102193.00;;;-20.30
73937;BMP180;59249;59.736;30.568;2024-01-07T05:02:43;102202.00;;;-20.30
73937;BMP180;59249;59.736;30.568;2024-01-07T05:05:34;102211.00;;;-20.30
73937;BMP180;59249;59.736;30.568;2024-01-07T05:08:06;102208.00;;;-20.40
73937;BMP180;59249;59.736;30.568;2024-01-07T05:10:36;102216.00;;;-20.40
73937;BMP180;59249;59.736;30.568;2024-01-07T05:13:07;102216.00;;;-20.40
73937;BMP180;59249;59.736;30.568;2024-01-07T05:15:39;102217.00;;;-20.40
73937;BMP180;59249;59.736;30.568;2024-01-07T05:18:27;102219.00;;;-20.40
73937;BMP180;59249;59.736;30.568;2024-01-07T05:21:06;102221.00;;;-20.40
73937;BMP180;59249;59.736;30.568;2024-01-07T05:23:39;102228.00;;;-20.30
73937;BMP180;59249;59.736;30.568;2024-01-07T05:26:11;102236.00;;;-20.40
73937;BMP180;59249;59.736;30.568;2024-01-07T05:28:49;102239.00;;;-20.40
73937;BMP180;59249;59.736;30.568;2024-01-07T05:31:23;102235.00;;;-20.30
73937;BMP180;59249;59.736;30.568;2024-01-07T05:33:55;102249.00;;;-20.30
73937;BMP180;59249;59.736;30.568;2024-01-07T05:36:29;102249.00;;;-20.30
73937;BMP180;59249;59.736;30.568;2024-01-07T05:39:03;102249.00;;;-20.30
73937;BMP180;59249;59.736;30.568;2024-01-07T05:41:38;102252.00;;;-20.30
73937;BMP180;59249;59.736;30.568;2024-01-07T05:44:08;102240.00;;;-20.30
73937;BMP180;59249;59.736;30.568;2024-01-07T05:46:39;102243.00;;;-20.30
73937;BMP180;59249;59.736;30.568;2024-01-07T05:49:09;102237.00;;;-20.20
73937;BMP180;59249;59.736;30.568;2024-01-07T05:51:58;102246.00;;;-20.20
73937;BMP180;59249;59.736;30.568;2024-01-07T05:54:28;102242.00;;;-20.30
73937;BMP180;59249;59.736;30.568;2024-01-07T05:56:58;102246.00;;;-20.30
73937;BMP180;59249;59.736;30.568;2024-01-07T05:59:29;102253.00;;;-20.30
73937;BMP180;59249;59.736;30.568;2024-01-07T06:02:00;102247.00;;;-20.30
73937;BMP180;59249;59.736;30.568;2024-01-07T06:04:32;102254.00;;;-20.30
73937;BMP180;59249;59.736;30.568;2024-01-07T06:07:23;102260.00;;;-20.30
73937;BMP180;59249;59.736;30.568;2024-01-07T06:09:58;102269.00;;;-20.30
73937;BMP180;59249;59.736;30.568;2024-01-07T06:12:29;102267.00;;;-20.30
73937;BMP180;59249;59.736;30.568;2024-01-07T06:15:06;102266.00;;;-20.30
73937;BMP180;59249;59.736;30.568;2024-01-07T06:17:40;102278.00;;;-20.20
73937;BMP180;59249;59.736;30.568;2024-01-07T06:20:17;102272.00;;;-20.10
73937;BMP180;59249;59.736;30.568;2024-01-07T06:22:49;102288.00;;;-20.10
73937;BMP180;59249;59.736;30.568;2024-01-07T06:25:21;102280.00;;;-20.00
73937;BMP180;59249;59.736;30.568;2024-01-07T06:27:53;102288.00;;;-20.10
73937;BMP180;59249;59.736;30.568;2024-01-07T06:30:23;102301.00;;;-20.00
73937;BMP180;59249;59.736;30.568;2024-01-07T06:32:57;102288.00;;;-19.90
73937;BMP180;59249;59.736;30.568;2024-01-07T06:35:34;102304.00;;;-19.90
73937;BMP180;59249;59.736;30.568;2024-01-07T06:38:07;102300.00;;;-19.90
73937;BMP180;59249;59.736;30.568;2024-01-07T06:40:48;102291.00;;;-19.90
73937;BMP180;59249;59.736;30.568;2024-01-07T06:43:27;102299.00;;;-19.80
73937;BMP180;59249;59.736;30.568;2024-01-07T06:45:56;102312.00;;;-19.70
73937;BMP180;59249;59.736;30.568;2024-01-07T06:48:27;102308.00;;;-19.70
73937;BMP180;59249;59.736;30.568;2024-01-07T06:50:58;102306.00;;;-19.60
73937;BMP180;59249;59.736;30.568;2024-01-07T06:53:28;102304.00;;;-19.60
73937;BMP180;59249;59.736;30.568;2024-01-07T06:55:59;102313.00;;;-19.60
73937;BMP180;59249;59.736;30.568;2024-01-07T06:58:30;102315.00;;;-19.50
73937;BMP180;59249;59.736;30.568;2024-01-07T07:00:59;102319.00;;;-19.50
73937;BMP180;59249;59.736;30.568;2024-01-07T07:03:35;102310.00;;;-19.40
73937;BMP180;59249;59.736;30.568;2024-01-07T07:06:04;102314.00;;;-19.40
73937;BMP180;59249;59.736;30.568;2024-01-07T07:08:35;102312.00;;;-19.40
73937;BMP180;59249;59.736;30.568;2024-01-07T07:11:09;102306.00;;;-19.40
73937;BMP180;59249;59.736;30.568;2024-01-07T07:13:39;102310.00;;;-19.40
73937;BMP180;59249;59.736;30.568;2024-01-07T07:16:08;102321.00;;;-19.50
73937;BMP180;59249;59.736;30.568;2024-01-07T07:18:40;102324.00;;;-19.50
73937;BMP180;59249;59.736;30.568;2024-01-07T07:21:10;102331.00;;;-19.50
73937;BMP180;59249;59.736;30.568;2024-01-07T07:23:39;102326.00;;;-19.50
73937;BMP180;59249;59.736;30.568;2024-01-07T07:26:08;102331.00;;;-19.50
73937;BMP180;59249;59.736;30.568;2024-01-07T07:28:40;102327.00;;;-19.60
73937;BMP180;59249;59.736;30.568;2024-01-07T07:31:10;102327.00;;;-19.60
73937;BMP180;59249;59.736;30.568;2024-01-07T07:33:41;102342.00;;;-19.50
73937;BMP180;59249;59.736;30.568;2024-01-07T07:36:11;102339.00;;;-19.50
73937;BMP180;59249;59.736;30.568;2024-01-07T07:38:40;102342.00;;;-19.50
73937;BMP180;59249;59.736;30.568;2024-01-07T07:41:12;102349.00;;;-19.50
73937;BMP180;59249;59.736;30.568;2024-01-07T07:43:41;102346.00;;;-19.40
73937;BMP180;59249;59.736;30.568;2024-01-07T07:46:11;102345.00;;;-19.40
73937;BMP180;59249;59.736;30.568;2024-01-07T07:48:42;102357.00;;;-19.40
73937;BMP180;59249;59.736;30.568;2024-01-07T07:51:11;102358.00;;;-19.40
73937;BMP180;59249;59.736;30.568;2024-01-07T07:53:40;102353.00;;;-19.40
73937;BMP180;59249;59.736;30.568;2024-01-07T07:56:09;102362.00;;;-19.30
73937;BMP180;59249;59.736;30.568;2024-01-07T07:58:38;102359.00;;;-19.30
73937;BMP180;59249;59.736;30.568;2024-01-07T08:01:35;102363.00;;;-19.30
73937;BMP180;59249;59.736;30.568;2024-01-07T08:04:09;102360.00;;;-19.20
73937;BMP180;59249;59.736;30.568;2024-01-07T08:06:48;102362.00;;;-19.10
73937;BMP180;59249;59.736;30.568;2024-01-07T08:09:26;102364.00;;;-19.10
73937;BMP180;59249;59.736;30.568;2024-01-07T08:11:57;102362.00;;;-19.00
73937;BMP180;59249;59.736;30.568;2024-01-07T08:14:28;102361.00;;;-18.90
73937;BMP180;59249;59.736;30.568;2024-01-07T08:17:00;102364.00;;;-18.90
73937;BMP180;59249;59.736;30.568;2024-01-07T08:19:56;102372.00;;;-18.80
73937;BMP180;59249;59.736;30.568;2024-01-07T08:22:42;102373.00;;;-18.80
73937;BMP180;59249;59.736;30.568;2024-01-07T08:25:21;102374.00;;;-18.70
73937;BMP180;59249;59.736;30.568;2024-01-07T08:27:50;102373.00;;;-18.70
73937;BMP180;59249;59.736;30.568;2024-01-07T08:30:21;102378.00;;;-18.70
73937;BMP180;59249;59.736;30.568;2024-01-07T08:33:06;102374.00;;;-18.60
73937;BMP180;59249;59.736;30.568;2024-01-07T08:35:38;102386.00;;;-18.50
73937;BMP180;59249;59.736;30.568;2024-01-07T08:38:21;102386.00;;;-18.50
73937;BMP180;59249;59.736;30.568;2024-01-07T08:40:53;102382.00;;;-18.40
73937;BMP180;59249;59.736;30.568;2024-01-07T08:43:24;102388.00;;;-18.30
73937;BMP180;59249;59.736;30.568;2024-01-07T08:46:08;102374.00;;;-18.30
73937;BMP180;59249;59.736;30.568;2024-01-07T08:48:38;102391.00;;;-18.20
73937;BMP180;59249;59.736;30.568;2024-01-07T08:51:34;102384.00;;;-18.20
73937;BMP180;59249;59.736;30.568;2024-01-07T08:54:05;102373.00;;;-18.10
73937;BMP180;59249;59.736;30.568;2024-01-07T08:56:40;102387.00;;;-18.00
73937;BMP180;59249;59.736;30.568;2024-01-07T08:59:13;102378.00;;;-18.10
73937;BMP180;59249;59.736;30.568;2024-01-07T09:01:49;102387.00;;;-18.10
73937;BMP180;59249;59.736;30.568;2024-01-07T09:04:19;102387.00;;;-18.00
73937;BMP180;59249;59.736;30.568;2024-01-07T09:06:50;102392.00;;;-18.00
73937;BMP180;59249;59.736;30.568;2024-01-07T09:09:23;102399.00;;;-18.00
73937;BMP180;59249;59.736;30.568;2024-01-07T09:11:53;102394.00;;;-17.90
73937;BMP180;59249;59.736;30.568;2024-01-07T09:14:33;102398.00;;;-17.80
73937;BMP180;59249;59.736;30.568;2024-01-07T09:17:03;102398.00;;;-17.80
73937;BMP180;59249;59.736;30.568;2024-01-07T09:19:32;102391.00;;;-17.70
73937;BMP180;59249;59.736;30.568;2024-01-07T09:22:20;102390.00;;;-17.60
73937;BMP180;59249;59.736;30.568;2024-01-07T09:25:00;102390.00;;;-17.50
73937;BMP180;59249;59.736;30.568;2024-01-07T09:27:33;102396.00;;;-17.50
73937;BMP180;59249;59.736;30.568;2024-01-07T09:30:09;102395.00;;;-17.40
73937;BMP180;59249;59.736;30.568;2024-01-07T09:32:55;102399.00;;;-17.40
73937;BMP180;59249;59.736;30.568;2024-01-07T09:35:26;102384.00;;;-17.40
73937;BMP180;59249;59.736;30.568;2024-01-07T09:38:00;102387.00;;;-17.20
73937;BMP180;59249;59.736;30.568;2024-01-07T09:40:33;102392.00;;;-17.20
73937;BMP180;59249;59.736;30.568;2024-01-07T09:43:16;102403.00;;;-17.20
73937;BMP180;59249;59.736;30.568;2024-01-07T09:45:47;102398.00;;;-17.10
73937;BMP180;59249;59.736;30.568;2024-01-07T09:48:20;102395.00;;;-17.00
73937;BMP180;59249;59.736;30.568;2024-01-07T09:50:52;102395.00;;;-17.00
73937;BMP180;59249;59.736;30.568;2024-01-07T09:53:30;102402.00;;;-17.00
73937;BMP180;59249;59.736;30.568;2024-01-07T09:56:20;102397.00;;;-17.00
73937;BMP180;59249;59.736;30.568;2024-01-07T09:59:18;102396.00;;;-16.90
73937;BMP180;59249;59.736;30.568;2024-01-07T10:01:57;102398.00;;;-16.90
73937;BMP180;59249;59.736;30.568;2024-01-07T10:04:42;102402.00;;;-16.80
73937;BMP180;59249;59.736;30.568;2024-01-07T10:07:29;102395.00;;;-16.90
73937;BMP180;59249;59.736;30.568;2024-01-07T10:10:19;102408.00;;;-16.80
73937;BMP180;59249;59.736;30.568;2024-01-07T10:12:51;102396.00;;;-16.80
73937;BMP180;59249;59.736;30.568;2024-01-07T10:15:32;102408.00;;;-16.80
73937;BMP180;59249;59.736;30.568;2024-01-07T10:18:05;102404.00;;;-16.70
73937;BMP180;59249;59.736;30.568;2024-01-07T10:21:02;102411.00;;;-16.60
73937;BMP180;59249;59.736;30.568;2024-01-07T10:23:32;102403.00;;;-16.50
73937;BMP180;59249;59.736;30.568;2024-01-07T10:26:03;102411.00;;;-16.50
73937;BMP180;59249;59.736;30.568;2024-01-07T10:28:51;102412.00;;;-16.40
73937;BMP180;59249;59.736;30.568;2024-01-07T10:31:23;102412.00;;;-16.40
73937;BMP180;59249;59.736;30.568;2024-01-07T10:34:01;102419.00;;;-16.30
73937;BMP180;59249;59.736;30.568;2024-01-07T10:36:34;102419.00;;;-16.30
73937;BMP180;59249;59.736;30.568;2024-01-07T10:39:05;102416.00;;;-16.30
73937;BMP180;59249;59.736;30.568;2024-01-07T10:41:39;102414.00;;;-16.20
73937;BMP180;59249;59.736;30.568;2024-01-07T10:44:17;102417.00;;;-16.20
73937;BMP180;59249;59.736;30.568;2024-01-07T10:46:56;102425.00;;;-16.10
73937;BMP180;59249;59.736;30.568;2024-01-07T10:49:32;102422.00;;;-16.10
73937;BMP180;59249;59.736;30.568;2024-01-07T10:52:21;102429.00;;;-16.00
73937;BMP180;59249;59.736;30.568;2024-01-07T10:54:52;102434.00;;;-16.00
73937;BMP180;59249;59.736;30.568;2024-01-07T10:57:32;102426.00;;;-15.90
73937;BMP180;59249;59.736;30.568;2024-01-07T11:00:09;102426.00;;;-15.90
73937;BMP180;59249;59.736;30.568;2024-01-07T11:02:53;102419.00;;;-15.90
73937;BMP180;59249;59.736;30.568;2024-01-07T11:05:39;102421.00;;;-15.90
73937;BMP180;59249;59.736;30.568;2024-01-07T11:08:18;102431.00;;;-15.90
73937;BMP180;59249;59.736;30.568;2024-01-07T11:10:59;102425.00;;;-15.80
73937;BMP180;59249;59.736;30.568;2024-01-07T11:13:35;102425.00;;;-15.80
73937;BMP180;59249;59.736;30.568;2024-01-07T11:16:06;102419.00;;;-15.80
73937;BMP180;59249;59.736;30.568;2024-01-07T11:18:46;102424.00;;;-15.80
73937;BMP180;59249;59.736;30.568;2024-01-07T11:21:23;102425.00;;;-15.70
73937;BMP180;59249;59.736;30.568;2024-01-07T11:24:09;102418.00;;;-15.70
73937;BMP180;59249;59.736;30.568;2024-01-07T11:26:39;102420.00;;;-15.60
73937;BMP180;59249;59.736;30.568;2024-01-07T11:29:09;102418.00;;;-15.60
73937;BMP180;59249;59.736;30.568;2024-01-07T11:31:44;102417.00;;;-15.60
73937;BMP180;59249;59.736;30.568;2024-01-07T11:34:42;102407.00;;;-15.60
73937;BMP180;59249;59.736;30.568;2024-01-07T11:37:15;102417.00;;;-15.50
73937;BMP180;59249;59.736;30.568;2024-01-07T11:39:55;102418.00;;;-15.50
73937;BMP180;59249;59.736;30.568;2024-01-07T11:42:25;102415.00;;;-15.40
73937;BMP180;59249;59.736;30.568;2024-01-07T11:44:56;102409.00;;;-15.40
73937;BMP180;59249;59.736;30.568;2024-01-07T11:47:27;102418.00;;;-15.40
73937;BMP180;59249;59.736;30.568;2024-01-07T11:50:11;102415.00;;;-15.40
73937;BMP180;59249;59.736;30.568;2024-01-07T11:52:42;102424.00;;;-15.40
73937;BMP180;59249;59.736;30.568;2024-01-07T11:55:27;102421.00;;;-15.40
73937;BMP180;59249;59.736;30.568;2024-01-07T11:58:03;102421.00;;;-15.40
73937;BMP180;59249;59.736;30.568;2024-01-07T12:00:34;102418.00;;;-15.40
73937;BMP180;59249;59.736;30.568;2024-01-07T12:03:05;102426.00;;;-15.40
73937;BMP180;59249;59.736;30.568;2024-01-07T12:05:37;102416.00;;;-15.40
73937;BMP180;59249;59.736;30.568;2024-01-07T12:08:11;102428.00;;;-15.50
73937;BMP180;59249;59.736;30.568;2024-01-07T12:10:44;102409.00;;;-15.50
73937;BMP180;59249;59.736;30.568;2024-01-07T12:13:17;102425.00;;;-15.40
73937;BMP180;59249;59.736;30.568;2024-01-07T12:15:55;102437.00;;;-15.40
73937;BMP180;59249;59.736;30.568;2024-01-07T12:18:35;102421.00;;;-15.40
73937;BMP180;59249;59.736;30.568;2024-01-07T12:21:09;102428.00;;;-15.40
73937;BMP180;59249;59.736;30.568;2024-01-07T12:23:54;102434.00;;;-15.40
73937;BMP180;59249;59.736;30.568;2024-01-07T12:26:30;102430.00;;;-15.40
73937;BMP180;59249;59.736;30.568;2024-01-07T12:29:01;102430.00;;;-15.40
73937;BMP180;59249;59.736;30.568;2024-01-07T12:31:38;102443.00;;;-15.40
73937;BMP180;59249;59.736;30.568;2024-01-07T12:34:10;102436.00;;;-15.40
73937;BMP180;59249;59.736;30.568;2024-01-07T12:36:39;102433.00;;;-15.30
73937;BMP180;59249;59.736;30.568;2024-01-07T12:39:09;102430.00;;;-15.40
73937;BMP180;59249;59.736;30.568;2024-01-07T12:42:01;102426.00;;;-15.40
73937;BMP180;59249;59.736;30.568;2024-01-07T12:44:37;102439.00;;;-15.40
73937;BMP180;59249;59.736;30.568;2024-01-07T12:47:18;102436.00;;;-15.40
73937;BMP180;59249;59.736;30.568;2024-01-07T12:49:47;102443.00;;;-15.40
73937;BMP180;59249;59.736;30.568;2024-01-07T12:52:16;102442.00;;;-15.40
73937;BMP180;59249;59.736;30.568;2024-01-07T12:54:45;102442.00;;;-15.40
73937;BMP180;59249;59.736;30.568;2024-01-07T12:57:14;102443.00;;;-15.50
73937;BMP180;59249;59.736;30.568;2024-01-07T12:59:47;102448.00;;;-15.50
73937;BMP180;59249;59.736;30.568;2024-01-07T13:02:31;102443.00;;;-15.50
73937;BMP180;59249;59.736;30.568;2024-01-07T13:05:00;102452.00;;;-15.50
73937;BMP180;59249;59.736;30.568;2024-01-07T13:07:31;102450.00;;;-15.50
73937;BMP180;59249;59.736;30.568;2024-01-07T13:10:00;102450.00;;;-15.50
73937;BMP180;59249;59.736;30.568;2024-01-07T13:12:31;102464.00;;;-15.40
73937;BMP180;59249;59.736;30.568;2024-01-07T13:15:13;102464.00;;;-15.40
73937;BMP180;59249;59.736;30.568;2024-01-07T13:17:46;102471.00;;;-15.40
73937;BMP180;59249;59.736;30.568;2024-01-07T13:20:16;102464.00;;;-15.40
73937;BMP180;59249;59.736;30.568;2024-01-07T13:22:47;102465.00;;;-15.50
73937;BMP180;59249;59.736;30.568;2024-01-07T13:25:16;102473.00;;;-15.40
73937;BMP180;59249;59.736;30.568;2024-01-07T13:27:46;102468.00;;;-15.50
73937;BMP180;59249;59.736;30.568;2024-01-07T13:30:15;102465.00;;;-15.50
73937;BMP180;59249;59.736;30.568;2024-01-07T13:32:45;102472.00;;;-15.50
73937;BMP180;59249;59.736;30.568;2024-01-07T13:35:16;102472.00;;;-15.40
73937;BMP180;59249;59.736;30.568;2024-01-07T13:37:45;102470.00;;;-15.50
73937;BMP180;59249;59.736;30.568;2024-01-07T13:40:15;102469.00;;;-15.50
73937;BMP180;59249;59.736;30.568;2024-01-07T13:42:47;102474.00;;;-15.50
73937;BMP180;59249;59.736;30.568;2024-01-07T13:45:20;102471.00;;;-15.50
73937;BMP180;59249;59.736;30.568;2024-01-07T13:48:03;102468.00;;;-15.60
73937;BMP180;59249;59.736;30.568;2024-01-07T13:50:34;102467.00;;;-15.60
73937;BMP180;59249;59.736;30.568;2024-01-07T13:53:19;102475.00;;;-15.60
73937;BMP180;59249;59.736;30.568;2024-01-07T13:56:09;102475.00;;;-15.60
73937;BMP180;59249;59.736;30.568;2024-01-07T13:58:41;102480.00;;;-15.70
73937;BMP180;59249;59.736;30.568;2024-01-07T14:01:17;102479.00;;;-15.70
73937;BMP180;59249;59.736;30.568;2024-01-07T14:03:51;102477.00;;;-15.70
73937;BMP180;59249;59.736;30.568;2024-01-07T14:06:25;102484.00;;;-15.70
73937;BMP180;59249;59.736;30.568;2024-01-07T14:09:21;102492.00;;;-15.70